createdAt,value
2022-07-31T00:00:20.833Z,8.70
2022-07-31T00:12:21.305Z,9.30
2022-07-31T00:24:21.708Z,8.90
2022-07-31T00:36:22.200Z,8.80
2022-07-31T00:48:22.647Z,9.50
2022-07-31T01:00:23.125Z,9.60
2022-07-31T01:12:23.563Z,9.40
2022-07-31T01:24:24.003Z,9.30
2022-07-31T01:36:24.484Z,9.60
2022-07-31T01:48:24.921Z,9.10
2022-07-31T02:00:34.616Z,9.10
2022-07-31T02:12:32.250Z,9.10
2022-07-31T02:24:26.307Z,9.50
2022-07-31T02:36:26.749Z,10.30
2022-07-31T02:48:27.170Z,9.00
2022-07-31T03:00:27.756Z,9.40
2022-07-31T03:12:28.079Z,9.60
2022-07-31T03:24:28.534Z,10.10
2022-07-31T03:36:28.962Z,10.50
2022-07-31T03:48:29.467Z,10.90
2022-07-31T04:00:29.935Z,10.70
2022-07-31T04:12:30.374Z,11.30
2022-07-31T04:24:30.823Z,10.60
2022-07-31T04:36:31.296Z,10.20
2022-07-31T04:48:31.769Z,9.10
2022-07-31T05:00:32.174Z,9.30
2022-07-31T05:12:32.635Z,12.70
2022-07-31T05:24:34.106Z,10.20
2022-07-31T05:36:33.547Z,8.70
2022-07-31T05:48:34.024Z,4.40
2022-07-31T06:00:34.436Z,4.10
2022-07-31T06:12:34.882Z,3.60
2022-07-31T06:24:35.394Z,3.60
2022-07-31T06:36:35.829Z,3.10
2022-07-31T06:48:36.276Z,3.20
2022-07-31T07:00:36.716Z,3.10
2022-07-31T07:12:37.197Z,3.00
2022-07-31T07:24:37.647Z,3.10
2022-07-31T07:36:38.111Z,2.90
2022-07-31T07:48:38.549Z,3.10
2022-07-31T08:00:39.035Z,3.00
2022-07-31T08:12:39.465Z,2.80
2022-07-31T08:24:39.935Z,3.00
2022-07-31T08:36:40.380Z,2.80
2022-07-31T08:48:40.834Z,2.90
2022-07-31T09:00:41.303Z,2.70
2022-07-31T09:12:41.736Z,2.70
2022-07-31T09:24:42.164Z,2.60
2022-07-31T09:36:42.647Z,2.60
2022-07-31T09:48:43.437Z,3.10
2022-07-31T10:00:43.705Z,2.70
2022-07-31T10:12:43.991Z,2.40
2022-07-31T10:24:44.515Z,2.10
2022-07-31T10:36:44.946Z,2.10
2022-07-31T10:48:45.535Z,2.40
2022-07-31T11:00:45.855Z,2.50
2022-07-31T11:12:46.281Z,2.20
2022-07-31T11:24:46.742Z,2.20
2022-07-31T11:36:51.181Z,2.20
2022-07-31T11:48:47.683Z,2.10
2022-07-31T12:00:48.144Z,2.00
2022-07-31T12:12:48.560Z,2.20
2022-07-31T12:24:49.030Z,1.80
2022-07-31T12:36:49.462Z,2.10
2022-07-31T12:48:50.047Z,2.30
2022-07-31T13:00:50.410Z,2.40
2022-07-31T13:12:50.837Z,1.90
2022-07-31T13:24:51.294Z,2.20
2022-07-31T13:36:51.790Z,1.90
2022-07-31T13:48:52.281Z,1.80
2022-07-31T14:00:52.684Z,1.70
2022-07-31T14:12:53.118Z,1.70
2022-07-31T14:24:53.609Z,1.70
2022-07-31T14:36:54.065Z,1.70
2022-07-31T14:48:54.551Z,1.70
2022-07-31T15:00:54.961Z,1.80
2022-07-31T15:12:55.460Z,1.80
2022-07-31T15:24:55.883Z,1.90
2022-07-31T15:36:56.333Z,1.90
2022-07-31T15:48:56.828Z,2.00
2022-07-31T16:00:57.399Z,2.30
2022-07-31T16:12:57.753Z,1.80
2022-07-31T16:24:58.167Z,2.10
2022-07-31T16:36:58.597Z,1.90
2022-07-31T16:48:59.171Z,1.80
2022-07-31T17:00:59.593Z,2.10
2022-07-31T17:12:59.982Z,2.10
2022-07-31T17:25:00.446Z,2.00
2022-07-31T17:37:00.959Z,2.00
2022-07-31T17:49:01.447Z,2.40
2022-07-31T18:01:01.820Z,2.50
2022-07-31T18:13:02.281Z,2.80
2022-07-31T18:25:02.757Z,3.30
2022-07-31T18:37:03.214Z,3.20
2022-07-31T18:49:03.702Z,3.40
2022-07-31T19:01:04.106Z,3.50
2022-07-31T19:13:04.589Z,3.90
2022-07-31T19:25:05.017Z,4.30
2022-07-31T19:37:05.428Z,4.60
2022-07-31T19:49:05.968Z,5.60
2022-07-31T20:01:06.416Z,5.60
2022-07-31T20:13:06.841Z,6.00
2022-07-31T20:25:19.492Z,5.50
2022-07-31T20:37:07.747Z,6.00
2022-07-31T20:49:08.263Z,6.40
2022-07-31T21:01:08.722Z,6.20
2022-07-31T21:13:09.117Z,6.20
2022-07-31T21:25:09.569Z,6.20
2022-07-31T21:37:10.015Z,6.80
2022-07-31T21:49:10.513Z,6.70
2022-07-31T22:01:10.995Z,7.20
2022-07-31T22:13:11.376Z,6.90
2022-07-31T22:25:11.878Z,6.60
2022-07-31T22:37:12.260Z,7.40
2022-07-31T22:49:12.754Z,7.00
2022-07-31T23:01:13.205Z,7.00
2022-07-31T23:13:13.649Z,7.80
2022-07-31T23:25:14.094Z,7.00
2022-07-31T23:37:14.543Z,7.70
2022-07-31T23:49:15.078Z,8.00
